Time;durP1;ratioP1;P1;durP2;ratioP2;P2;SDS_P1;SDS_P2;PMS_P1;PMS_P2;Temp;Humidity;BMP_temperature;BMP_pressure;BME280_temperature;BME280_humidity;BME280_pressure;Samples;Min_cycle;Max_cycle;Signal;HPM_P1;HPM_P2
2022/03/28 00:02:25;;;;;;;119.15;52.53;;;;;;;-0.78;59.53;95588.63;1626728;86;21080;-50
2022/03/28 00:04:54;;;;;;;122.72;52.38;;;;;;;-0.91;59.81;95587.77;1610636;87;21001;-51
2022/03/28 00:07:22;;;;;;;118.20;56.08;;;;;;;-1.02;59.82;95584.05;1618362;87;21782;-50
2022/03/28 00:09:49;;;;;;;136.20;57.35;;;;;;;-1.09;59.98;95582.01;1633440;86;21092;-52
2022/03/28 00:12:18;;;;;;;122.17;56.33;;;;;;;-1.10;60.22;95587.75;1625808;87;20969;-50
2022/03/28 00:14:46;;;;;;;114.50;53.02;;;;;;;-1.07;60.27;95577.03;1622291;87;21002;-50
2022/03/28 00:17:14;;;;;;;128.78;56.58;;;;;;;-1.01;60.09;95576.17;1621428;86;21475;-50
2022/03/28 00:19:43;;;;;;;124.02;52.45;;;;;;;-0.98;59.91;95581.65;1614635;87;21431;-51
2022/03/28 00:22:13;;;;;;;128.20;55.10;;;;;;;-0.93;59.88;95576.55;1618152;87;21189;-52
2022/03/28 00:24:40;;;;;;;119.90;52.90;;;;;;;-0.90;59.94;95569.88;1618120;87;21505;-49
2022/03/28 00:27:07;;;;;;;161.30;70.20;;;;;;;-0.94;60.43;95581.15;1635635;87;21143;-49
2022/03/28 00:29:35;;;;;;;166.22;70.55;;;;;;;-1.02;60.73;95577.30;1638193;87;20981;-50
2022/03/28 00:32:04;;;;;;;162.97;66.65;;;;;;;-1.13;60.88;95578.42;1623371;86;21625;-51
2022/03/28 00:34:32;;;;;;;171.35;73.35;;;;;;;-1.26;61.02;95574.30;1631335;87;21604;-52
2022/03/28 00:36:59;;;;;;;161.28;71.65;;;;;;;-1.34;61.36;95574.49;1627997;87;21076;-50
2022/03/28 00:39:26;;;;;;;160.18;69.80;;;;;;;-1.38;61.55;95574.95;1632858;86;21640;-51
2022/03/28 00:41:54;;;;;;;156.80;65.65;;;;;;;-1.36;61.63;95564.63;1627909;87;20977;-51
2022/03/28 00:44:21;;;;;;;164.70;71.47;;;;;;;-1.37;61.56;95569.77;1639808;87;21983;-51
2022/03/28 00:46:49;;;;;;;265.12;90.70;;;;;;;-1.38;61.66;95575.75;1620004;87;21513;-52
2022/03/28 00:49:16;;;;;;;296.90;98.87;;;;;;;-1.38;61.69;95567.66;1628991;87;21023;-49
2022/03/28 00:51:45;;;;;;;274.48;101.25;;;;;;;-1.36;61.84;95563.27;1626104;87;20998;-51
2022/03/28 00:54:12;;;;;;;275.25;95.40;;;;;;;-1.31;62.07;95573.78;1621914;87;21094;-51
2022/03/28 00:56:42;;;;;;;191.35;75.60;;;;;;;-1.23;62.03;95563.35;1621846;86;21246;-51
2022/03/28 00:59:11;;;;;;;151.42;60.65;;;;;;;-1.16;61.79;95561.59;1624261;86;21079;-51
2022/03/28 01:01:39;;;;;;;157.65;65.78;;;;;;;-1.16;61.86;95563.52;1582798;88;21109;-50
2022/03/28 01:04:07;;;;;;;138.82;60.20;;;;;;;-1.17;61.95;95551.16;1619646;87;21050;-51
2022/03/28 01:06:36;;;;;;;147.93;63.35;;;;;;;-1.19;61.96;95552.85;1611909;87;20990;-51
2022/03/28 01:09:04;;;;;;;171.43;66.28;;;;;;;-1.15;61.84;95559.10;1617421;87;21201;-49
2022/03/28 01:11:36;;;;;;;123.50;53.90;;;;;;;-1.14;61.61;95556.62;1617693;87;21450;-50
2022/03/28 01:14:04;;;;;;;122.00;54.23;;;;;;;-1.17;61.55;95552.52;1623335;86;21089;-50
2022/03/28 01:19:18;;;;;;;120.62;54.73;;;;;;;-1.28;62.00;95537.99;1634227;87;21042;-50
2022/03/28 01:21:45;;;;;;;128.70;55.73;;;;;;;-1.34;61.94;95539.41;1629591;87;21257;-51
2022/03/28 01:24:14;;;;;;;137.10;59.80;;;;;;;-1.44;61.97;95534.55;1629724;86;21037;-52
2022/03/28 01:26:42;;;;;;;131.25;58.65;;;;;;;-1.48;62.32;95544.48;1627588;86;21123;-50
2022/03/28 01:29:10;;;;;;;134.72;60.92;;;;;;;-1.45;62.52;95535.69;1632685;87;21095;-51
2022/03/28 01:31:41;;;;;;;123.85;53.52;;;;;;;-1.40;62.71;95536.20;1624869;87;20997;-50
2022/03/28 01:34:19;;;;;;;135.22;59.63;;;;;;;-1.33;62.75;95532.88;1621266;87;21292;-50
2022/03/28 01:36:49;;;;;;;130.95;56.90;;;;;;;-1.27;62.69;95535.51;1628225;87;21450;-51
2022/03/28 01:39:18;;;;;;;117.57;53.15;;;;;;;-1.28;62.82;95525.84;1622151;86;21201;-50
2022/03/28 01:41:46;;;;;;;112.03;48.00;;;;;;;-1.27;63.08;95523.36;1641922;87;21044;-50
2022/03/28 01:44:13;;;;;;;101.62;46.88;;;;;;;-1.28;63.12;95526.64;1635547;86;21032;-48
2022/03/28 01:46:44;;;;;;;113.10;49.20;;;;;;;-1.29;63.10;95522.94;1639118;86;22160;-50
2022/03/28 01:49:13;;;;;;;138.25;62.85;;;;;;;-1.35;63.11;95517.03;1643545;85;21009;-49
2022/03/28 01:51:42;;;;;;;121.55;56.48;;;;;;;-1.39;63.36;95509.98;1640168;86;21166;-50
2022/03/28 01:54:10;;;;;;;123.22;54.27;;;;;;;-1.37;63.48;95511.20;1654350;86;21062;-50
2022/03/28 01:56:37;;;;;;;116.30;53.60;;;;;;;-1.27;63.34;95497.72;1653011;86;20986;-50
2022/03/28 01:59:05;;;;;;;139.20;58.20;;;;;;;-1.20;63.01;95497.86;1653200;86;21806;-50
2022/03/28 02:01:33;;;;;;;103.20;44.58;;;;;;;-1.19;62.64;95494.82;1653234;86;21543;-51
2022/03/28 02:04:00;;;;;;;97.67;40.58;;;;;;;-1.20;62.67;95495.16;1656385;85;21118;-50
2022/03/28 02:06:28;;;;;;;92.12;40.92;;;;;;;-1.30;62.87;95488.41;1652039;85;20985;-51
2022/03/28 02:08:55;;;;;;;106.67;44.60;;;;;;;-1.34;63.23;95490.84;1649714;85;20961;-50
2022/03/28 02:11:23;;;;;;;103.60;46.25;;;;;;;-1.37;63.22;95490.17;1651582;85;21209;-51
2022/03/28 02:13:51;;;;;;;114.10;50.20;;;;;;;-1.35;63.50;95489.28;1632537;86;21061;-48
2022/03/28 02:16:19;;;;;;;122.40;53.68;;;;;;;-1.35;63.39;95482.53;1646828;85;21029;-51
2022/03/28 02:18:46;;;;;;;116.37;48.45;;;;;;;-1.36;63.15;95479.63;1651463;85;21127;-51
2022/03/28 02:21:13;;;;;;;101.12;46.18;;;;;;;-1.43;63.28;95477.55;1639525;86;21550;-51
2022/03/28 02:23:42;;;;;;;109.90;48.28;;;;;;;-1.45;63.29;95472.28;1646087;85;21181;-49
2022/03/28 02:26:09;;;;;;;108.35;46.20;;;;;;;-1.49;63.31;95468.73;1638501;86;21113;-50
2022/03/28 02:28:36;;;;;;;108.07;46.37;;;;;;;-1.52;63.36;95464.81;1639941;86;21049;-50
2022/03/28 02:31:05;;;;;;;97.67;41.42;;;;;;;-1.51;63.43;95463.68;1641631;86;20990;-49
2022/03/28 02:33:33;;;;;;;93.22;41.88;;;;;;;-1.55;63.46;95461.48;1651058;85;21457;-51
2022/03/28 02:36:00;;;;;;;104.23;45.28;;;;;;;-1.55;63.59;95464.17;1650569;85;21154;-50
2022/03/28 02:38:28;;;;;;;110.80;49.67;;;;;;;-1.56;63.48;95465.31;1645879;85;20987;-50
2022/03/28 02:40:59;;;;;;;121.28;52.27;;;;;;;-1.55;63.50;95464.17;1647782;85;21454;-50
2022/03/28 02:43:26;;;;;;;138.57;56.60;;;;;;;-1.51;63.23;95449.42;1643254;86;20978;-51
2022/03/28 02:45:53;;;;;;;136.10;58.23;;;;;;;-1.47;63.09;95452.97;1646336;86;21037;-50
2022/03/28 02:48:21;;;;;;;123.20;51.20;;;;;;;-1.40;63.16;95459.30;1649707;85;21153;-51
2022/03/28 02:50:49;;;;;;;134.50;55.78;;;;;;;-1.35;62.97;95452.85;1660235;86;21100;-50
2022/03/28 02:53:16;;;;;;;109.80;48.40;;;;;;;-1.34;62.63;95453.83;1649956;85;21022;-50
2022/03/28 02:55:47;;;;;;;72.62;35.33;;;;;;;-1.34;62.87;95450.36;1649037;85;20992;-51
2022/03/28 02:58:14;;;;;;;78.40;35.65;;;;;;;-1.30;62.63;95445.81;1648851;86;21464;-51
2022/03/28 03:00:42;;;;;;;94.17;39.73;;;;;;;-1.40;62.94;95454.46;1647007;86;21785;-52
2022/03/28 03:03:09;;;;;;;102.40;44.67;;;;;;;-1.37;63.09;95451.05;1649086;85;21025;-51
2022/03/28 03:05:37;;;;;;;100.75;45.55;;;;;;;-1.38;62.88;95458.93;1657831;86;20985;-50
2022/03/28 03:08:06;;;;;;;99.42;40.35;;;;;;;-1.43;62.95;95457.87;1647498;85;21053;-50
2022/03/28 03:10:33;;;;;;;92.05;39.70;;;;;;;-1.52;63.18;95460.77;1647266;86;21071;-52
2022/03/28 03:13:01;;;;;;;102.58;43.35;;;;;;;-1.62;63.36;95453.80;1656751;85;21150;-50
2022/03/28 03:15:29;;;;;;;97.55;41.65;;;;;;;-1.77;63.76;95458.66;1646554;86;21061;-50
2022/03/28 03:17:57;;;;;;;94.65;43.08;;;;;;;-1.85;64.12;95455.61;1653496;86;21037;-50
2022/03/28 03:20:26;;;;;;;93.22;41.20;;;;;;;-1.93;64.46;95449.82;1647323;86;20990;-50
2022/03/28 03:22:56;;;;;;;96.47;40.45;;;;;;;-1.98;64.75;95446.64;1650542;86;20953;-50
2022/03/28 03:25:23;;;;;;;94.55;41.28;;;;;;;-2.03;65.03;95450.37;1648743;85;21111;-50
2022/03/28 03:27:51;;;;;;;81.40;38.15;;;;;;;-2.03;65.21;95452.27;1651460;85;21076;-54
2022/03/28 03:30:19;;;;;;;84.32;36.85;;;;;;;-2.00;65.18;95456.41;1648599;86;21057;-51
2022/03/28 03:32:49;;;;;;;74.87;35.38;;;;;;;-1.95;65.05;95448.05;1649075;86;20985;-50
2022/03/28 03:35:16;;;;;;;84.52;37.88;;;;;;;-1.95;64.92;95448.05;1646436;85;21033;-51
2022/03/28 03:37:44;;;;;;;93.25;41.88;;;;;;;-1.94;64.98;95449.61;1645645;86;21892;-51
2022/03/28 03:40:12;;;;;;;84.75;38.58;;;;;;;-1.95;65.04;95446.70;1647353;86;21115;-50
2022/03/28 03:42:41;;;;;;;92.33;40.92;;;;;;;-1.99;65.21;95434.30;1650226;85;21021;-51
2022/03/28 03:45:10;;;;;;;95.38;43.68;;;;;;;-2.00;65.19;95436.77;1643394;86;21505;-51
2022/03/28 03:47:38;;;;;;;116.37;52.67;;;;;;;-2.06;65.04;95440.30;1650627;86;21017;-50
2022/03/28 03:50:07;;;;;;;127.95;60.90;;;;;;;-2.07;65.00;95436.05;1647174;85;21267;-50
2022/03/28 03:52:35;;;;;;;113.32;55.65;;;;;;;-2.01;65.20;95439.22;1649063;86;21181;-50
2022/03/28 03:55:03;;;;;;;114.12;55.63;;;;;;;-1.90;65.04;95435.66;1648362;85;21635;-51
2022/03/28 03:57:30;;;;;;;115.42;53.50;;;;;;;-1.87;64.43;95435.51;1627309;86;21261;-50
2022/03/28 03:59:58;;;;;;;87.72;39.63;;;;;;;-1.90;64.39;95434.31;1649272;85;21010;-51
2022/03/28 04:02:27;;;;;;;89.75;41.48;;;;;;;-1.93;64.52;95432.30;1642301;85;21158;-51
2022/03/28 04:04:54;;;;;;;97.02;44.20;;;;;;;-1.91;64.76;95431.41;1650057;85;20973;-52
2022/03/28 04:07:23;;;;;;;113.28;51.25;;;;;;;-1.88;64.50;95434.74;1644981;86;20997;-51
2022/03/28 04:09:50;;;;;;;124.95;54.73;;;;;;;-1.84;64.05;95432.90;1613658;87;21085;-50
2022/03/28 04:12:17;;;;;;;130.47;54.40;;;;;;;-1.81;63.80;95424.10;1647941;86;21041;-51
2022/03/28 04:14:45;;;;;;;129.93;56.75;;;;;;;-1.75;63.62;95426.73;1629425;86;22150;-51
2022/03/28 04:17:15;;;;;;;70.28;37.58;;;;;;;-1.73;63.46;95415.05;1645761;86;20979;-51
2022/03/28 04:19:44;;;;;;;95.07;38.70;;;;;;;-1.70;63.42;95419.16;1654598;86;21473;-51
2022/03/28 04:22:12;;;;;;;87.15;40.35;;;;;;;-1.73;63.47;95416.40;1645978;86;21062;-51
2022/03/28 04:24:39;;;;;;;91.67;41.73;;;;;;;-1.77;63.74;95420.36;1653125;85;21423;-51
2022/03/28 04:27:06;;;;;;;82.53;33.58;;;;;;;-1.79;63.86;95423.19;1653007;85;21199;-51
2022/03/28 04:29:33;;;;;;;81.85;38.00;;;;;;;-1.83;64.14;95419.63;1649960;85;21046;-51
2022/03/28 04:32:01;;;;;;;94.17;40.00;;;;;;;-1.90;64.33;95418.14;1651227;86;22169;-51
2022/03/28 04:34:28;;;;;;;93.75;39.45;;;;;;;-2.01;64.49;95415.77;1638890;86;21512;-51
2022/03/28 04:36:56;;;;;;;133.30;56.58;;;;;;;-2.13;64.68;95410.47;1648367;86;21128;-50
2022/03/28 04:39:23;;;;;;;112.03;47.20;;;;;;;-2.22;65.19;95419.87;1644138;86;21175;-51
2022/03/28 04:41:51;;;;;;;158.00;62.30;;;;;;;-2.27;65.30;95417.45;1651251;86;21207;-51
2022/03/28 04:44:18;;;;;;;139.37;60.10;;;;;;;-2.31;65.65;95417.36;1651637;85;21616;-51
2022/03/28 04:46:46;;;;;;;152.30;66.95;;;;;;;-2.30;65.97;95417.58;1652451;86;21108;-50
2022/03/28 04:49:14;;;;;;;145.35;65.08;;;;;;;-2.22;66.18;95419.87;1658074;86;21454;-51
2022/03/28 04:51:42;;;;;;;111.17;54.08;;;;;;;-2.15;66.13;95427.56;1656553;85;21260;-51
2022/03/28 04:54:12;;;;;;;175.90;73.65;;;;;;;-2.02;66.16;95418.24;1652394;86;21552;-51
2022/03/28 04:56:39;;;;;;;260.52;109.42;;;;;;;-1.92;66.02;95425.00;1646836;85;21060;-52
2022/03/28 04:59:07;;;;;;;182.90;78.30;;;;;;;-1.86;65.82;95427.08;1645820;86;21054;-52
2022/03/28 05:01:35;;;;;;;158.75;68.92;;;;;;;-1.80;65.68;95424.90;1651911;85;20984;-50
2022/03/28 05:04:02;;;;;;;146.15;61.68;;;;;;;-1.72;65.48;95426.81;1650105;85;21150;-53
2022/03/28 05:06:29;;;;;;;137.55;62.88;;;;;;;-1.68;65.17;95422.27;1649933;86;21057;-53
2022/03/28 05:08:58;;;;;;;128.85;63.38;;;;;;;-1.63;64.97;95427.97;1652542;86;20965;-51
2022/03/28 05:11:26;;;;;;;148.13;67.62;;;;;;;-1.52;64.98;95423.00;1647873;86;21119;-51
2022/03/28 05:13:53;;;;;;;142.77;67.62;;;;;;;-1.40;64.59;95428.83;1648809;85;21064;-51
2022/03/28 05:16:22;;;;;;;151.42;66.22;;;;;;;-1.36;64.36;95421.61;1655190;85;21829;-50
2022/03/28 05:18:49;;;;;;;154.23;70.47;;;;;;;-1.35;64.27;95425.28;1647840;85;21114;-50
2022/03/28 05:21:17;;;;;;;143.22;63.13;;;;;;;-1.21;64.43;95423.43;1645100;85;21485;-51
2022/03/28 05:23:46;;;;;;;172.10;73.75;;;;;;;-1.02;63.83;95418.02;1652205;86;21087;-51
2022/03/28 05:26:13;;;;;;;163.97;77.27;;;;;;;-0.96;63.21;95416.02;1648797;85;21044;-52
2022/03/28 05:28:40;;;;;;;165.80;77.25;;;;;;;-0.94;63.01;95419.14;1652107;86;21308;-53
2022/03/28 05:31:07;;;;;;;153.42;73.70;;;;;;;-0.86;62.83;95412.75;1648304;85;21034;-60
2022/03/28 05:33:35;;;;;;;151.63;69.40;;;;;;;-0.79;62.62;95412.09;1666987;84;20979;-57
2022/03/28 05:36:04;;;;;;;122.95;60.25;;;;;;;-0.74;62.34;95407.75;1660338;85;21049;-55
2022/03/28 05:38:32;;;;;;;123.92;56.65;;;;;;;-0.67;62.13;95401.10;1659241;85;21120;-55
2022/03/28 05:40:59;;;;;;;99.20;49.27;;;;;;;-0.58;61.50;95408.41;1651236;85;21510;-54
2022/03/28 05:43:27;;;;;;;53.00;27.73;;;;;;;-0.47;60.95;95402.60;1646341;86;21027;-54
2022/03/28 05:45:54;;;;;;;72.87;37.42;;;;;;;-0.42;60.33;95399.62;1650886;84;21134;-54
2022/03/28 05:48:23;;;;;;;83.52;44.20;;;;;;;-0.31;59.80;95389.73;1663185;84;21037;-52
2022/03/28 05:50:51;;;;;;;72.27;38.17;;;;;;;-0.24;59.50;95389.87;1671242;84;21078;-52
2022/03/28 05:53:19;;;;;;;85.60;37.78;;;;;;;-0.15;59.41;95390.38;1674152;85;21315;-50
2022/03/28 05:55:46;;;;;;;112.37;39.53;;;;;;;0.02;58.96;95383.31;1671302;85;21060;-51
2022/03/28 05:58:14;;;;;;;62.33;30.72;;;;;;;0.14;58.39;95387.17;1661560;85;21011;-51
2022/03/28 06:00:41;;;;;;;65.83;33.18;;;;;;;0.35;58.08;95383.39;1652506;85;21559;-53
2022/03/28 06:03:08;;;;;;;61.83;34.85;;;;;;;0.57;57.60;95374.39;1660629;84;21106;-52
2022/03/28 06:05:36;;;;;;;62.60;35.13;;;;;;;0.80;57.04;95375.05;1669851;84;21869;-52
2022/03/28 06:08:05;;;;;;;51.00;28.12;;;;;;;0.99;56.53;95374.11;1644369;84;21068;-55
2022/03/28 06:10:33;;;;;;;88.42;44.18;;;;;;;1.16;55.82;95365.39;1641140;85;21083;-51
2022/03/28 06:13:03;;;;;;;91.97;43.55;;;;;;;1.31;55.88;95365.15;1657835;84;21105;-56
2022/03/28 06:15:36;;;;;;;81.15;43.13;;;;;;;1.35;55.74;95364.59;1649034;84;21062;-53
2022/03/28 06:18:03;;;;;;;73.85;37.42;;;;;;;1.41;55.31;95361.77;1651200;84;21191;-52
2022/03/28 06:20:32;;;;;;;58.40;31.90;;;;;;;1.50;54.77;95354.68;1661011;84;21044;-53
2022/03/28 06:23:02;;;;;;;53.08;28.73;;;;;;;1.59;54.07;95353.77;1663010;84;21063;-52
2022/03/28 06:25:32;;;;;;;51.80;28.65;;;;;;;1.68;53.35;95346.88;1653421;85;21152;-50
2022/03/28 06:28:00;;;;;;;42.67;23.35;;;;;;;1.79;53.06;95340.38;1636156;84;20975;-52
2022/03/28 06:30:29;;;;;;;50.35;25.12;;;;;;;2.03;52.34;95352.55;1649374;84;21078;-57
2022/03/28 06:32:56;;;;;;;106.35;22.77;;;;;;;2.30;51.61;95341.69;1652946;84;21425;-54
2022/03/28 06:35:25;;;;;;;40.85;18.27;;;;;;;2.54;50.47;95345.09;1642451;85;20962;-52
2022/03/28 06:37:53;;;;;;;36.05;21.60;;;;;;;2.82;49.39;95342.48;1658185;84;21073;-54
2022/03/28 06:40:20;;;;;;;50.17;23.02;;;;;;;3.05;48.70;95340.23;1656212;84;21520;-50
2022/03/28 06:42:48;;;;;;;39.63;19.45;;;;;;;3.21;48.07;95334.63;1651739;84;21590;-52
2022/03/28 06:45:16;;;;;;;32.13;17.92;;;;;;;3.29;47.10;95336.78;1659780;84;21108;-53
2022/03/28 06:47:44;;;;;;;34.55;18.15;;;;;;;3.38;46.63;95330.41;1643371;85;21062;-54
2022/03/28 06:50:12;;;;;;;29.37;16.95;;;;;;;3.46;45.77;95325.91;1643138;85;21014;-52
2022/03/28 06:52:40;;;;;;;29.57;14.98;;;;;;;3.53;45.57;95316.42;1653241;84;21010;-54
2022/03/28 06:55:10;;;;;;;37.63;17.10;;;;;;;3.61;45.39;95316.60;1660099;84;22216;-53
2022/03/28 06:57:37;;;;;;;31.00;14.55;;;;;;;3.75;44.88;95320.13;1649659;84;21195;-53
2022/03/28 07:00:17;;;;;;;32.15;15.20;;;;;;;3.88;44.33;95307.65;1654867;84;21062;-54
2022/03/28 07:02:43;;;;;;;27.15;16.05;;;;;;;4.02;43.97;95309.00;1649463;85;21079;-50
2022/03/28 07:05:12;;;;;;;26.27;14.00;;;;;;;4.12;43.56;95305.50;1648622;85;21123;-53
2022/03/28 07:07:47;;;;;;;24.50;14.23;;;;;;;4.20;43.13;95297.48;1658262;84;21357;-55
2022/03/28 07:10:17;;;;;;;28.10;14.55;;;;;;;4.37;42.96;95302.69;1661770;84;21138;-54
2022/03/28 07:12:47;;;;;;;25.12;16.10;;;;;;;4.56;43.09;95290.76;1658601;84;21022;-51
2022/03/28 07:15:14;;;;;;;35.73;15.43;;;;;;;4.84;42.36;95290.66;1647484;85;21074;-54
2022/03/28 07:17:56;;;;;;;41.45;20.88;;;;;;;5.09;41.87;95291.28;1657032;84;21639;-53
2022/03/28 07:20:27;;;;;;;34.80;21.10;;;;;;;5.30;41.85;95289.78;1658619;84;21009;-55
2022/03/28 07:22:54;;;;;;;29.42;16.10;;;;;;;5.55;41.55;95285.70;1659030;85;21666;-55
2022/03/28 07:25:26;;;;;;;33.67;17.37;;;;;;;5.78;40.31;95285.92;1657959;84;21006;-53
2022/03/28 07:27:53;;;;;;;32.55;17.07;;;;;;;5.99;39.11;95281.63;1661860;85;21063;-52
2022/03/28 07:30:22;;;;;;;25.85;17.30;;;;;;;6.17;39.21;95267.82;1668040;84;21077;-51
2022/03/28 07:32:52;;;;;;;27.10;15.48;;;;;;;6.28;38.59;95265.73;1621099;86;21123;-54
2022/03/28 07:35:24;;;;;;;24.40;14.23;;;;;;;6.40;38.11;95261.12;1653970;85;21005;-54
2022/03/28 07:37:51;;;;;;;22.42;12.70;;;;;;;6.57;37.72;95258.78;1654463;84;21118;-55
2022/03/28 07:40:20;;;;;;;22.45;11.55;;;;;;;6.68;37.04;95247.13;1659901;84;20931;-53
2022/03/28 07:42:51;;;;;;;17.27;10.68;;;;;;;6.77;36.33;95246.81;1661794;84;21085;-53
2022/03/28 07:45:23;;;;;;;19.20;9.68;;;;;;;6.83;35.90;95243.00;1640662;84;21868;-55
2022/03/28 07:47:53;;;;;;;19.35;10.48;;;;;;;6.95;35.24;95242.47;1641258;85;22252;-53
2022/03/28 07:50:22;;;;;;;22.13;12.82;;;;;;;7.08;35.08;95237.98;1652726;84;21018;-53
2022/03/28 07:52:50;;;;;;;20.05;12.28;;;;;;;7.28;35.57;95237.67;1659413;84;21005;-52
2022/03/28 07:55:18;;;;;;;34.70;14.43;;;;;;;7.55;35.68;95234.92;1664387;84;21026;-53
2022/03/28 07:57:46;;;;;;;22.85;12.60;;;;;;;7.80;35.18;95229.21;1660072;84;21171;-56
2022/03/28 08:00:19;;;;;;;24.02;11.65;;;;;;;8.00;34.64;95226.50;1652378;84;21196;-53
2022/03/28 08:02:47;;;;;;;22.98;11.40;;;;;;;8.21;33.88;95218.70;1656544;84;21128;-53
2022/03/28 08:05:15;;;;;;;17.50;10.20;;;;;;;8.47;33.27;95209.57;1650426;85;21205;-54
2022/03/28 08:07:43;;;;;;;16.12;10.93;;;;;;;8.65;32.44;95205.12;1650464;85;21010;-54
2022/03/28 08:10:13;;;;;;;21.23;13.05;;;;;;;8.77;32.41;95197.63;1656505;84;21834;-54
2022/03/28 08:12:43;;;;;;;22.85;11.10;;;;;;;8.97;32.86;95193.63;1651508;85;21030;-54
2022/03/28 08:15:11;;;;;;;19.05;11.45;;;;;;;9.22;32.20;95185.02;1637464;85;21073;-54
2022/03/28 08:17:40;;;;;;;28.90;13.95;;;;;;;9.45;31.78;95183.47;1646744;85;21130;-53
2022/03/28 08:20:11;;;;;;;19.52;12.07;;;;;;;9.68;31.35;95172.33;1655234;84;21120;-54
2022/03/28 08:22:44;;;;;;;21.97;12.80;;;;;;;9.88;30.85;95164.74;1662511;84;21234;-53
2022/03/28 08:25:13;;;;;;;26.75;12.85;;;;;;;10.04;31.20;95166.70;1665890;84;21564;-55
2022/03/28 08:27:41;;;;;;;37.80;14.15;;;;;;;10.24;30.57;95160.46;1636144;85;21042;-54
2022/03/28 08:30:12;;;;;;;20.02;10.82;;;;;;;10.44;30.44;95151.45;1658454;84;21171;-54
2022/03/28 08:32:43;;;;;;;33.73;12.95;;;;;;;10.66;29.21;95148.25;1650813;84;21062;-53
2022/03/28 08:35:13;;;;;;;23.67;11.23;;;;;;;10.80;28.87;95146.63;1641076;85;22234;-53
2022/03/28 08:37:41;;;;;;;27.87;11.90;;;;;;;10.90;28.36;95140.05;1636501;85;20986;-53
2022/03/28 08:40:09;;;;;;;19.92;11.18;;;;;;;11.03;28.13;95138.08;1640669;84;21006;-53
2022/03/28 08:42:36;;;;;;;25.80;11.00;;;;;;;11.22;28.28;95126.66;1653796;84;21199;-55
2022/03/28 08:45:07;;;;;;;22.27;10.90;;;;;;;11.44;27.31;95117.88;1662260;84;21069;-53
2022/03/28 08:47:35;;;;;;;21.27;11.48;;;;;;;11.65;27.87;95119.95;1650665;84;21127;-54
2022/03/28 08:50:05;;;;;;;20.52;10.05;;;;;;;11.94;27.78;95115.03;1658508;85;21198;-54
2022/03/28 08:52:34;;;;;;;25.65;9.95;;;;;;;12.18;26.91;95121.06;1674843;84;21057;-54
2022/03/28 08:55:04;;;;;;;16.70;8.60;;;;;;;12.37;26.52;95118.59;1649170;84;21516;-56
2022/03/28 08:57:32;;;;;;;15.43;8.80;;;;;;;12.57;25.77;95106.61;1649967;85;20999;-54
2022/03/28 09:00:00;;;;;;;20.35;8.63;;;;;;;12.69;25.30;95101.01;1653618;85;21594;-54
2022/03/28 09:02:43;;;;;;;15.18;7.85;;;;;;;12.84;24.97;95095.71;1664975;84;21104;-53
2022/03/28 09:05:10;;;;;;;18.30;7.83;;;;;;;12.99;24.58;95091.21;1656179;85;21561;-53
2022/03/28 09:07:38;;;;;;;14.73;7.28;;;;;;;13.16;24.22;95094.67;1650285;85;21882;-51
2022/03/28 09:10:14;;;;;;;13.22;7.37;;;;;;;13.35;23.82;95094.11;1651124;84;21045;-53
2022/03/28 09:13:04;;;;;;;16.70;6.62;;;;;;;13.52;23.41;95080.18;1627137;86;21157;-53
2022/03/28 09:15:55;;;;;;;14.28;6.15;;;;;;;13.74;23.19;95084.97;1656531;84;21054;-55
2022/03/28 09:18:34;;;;;;;15.98;7.05;;;;;;;13.94;21.99;95081.16;1653059;85;21728;-54
2022/03/28 09:21:05;;;;;;;8.08;5.25;;;;;;;14.15;22.25;95073.34;1645963;84;21093;-54
2022/03/28 09:23:42;;;;;;;;;;;;;;;14.35;21.50;95066.11;1661872;83;21077;-55
2022/03/28 09:26:20;;;;;;;17.52;5.72;;;;;;;14.47;21.51;95059.01;1655298;85;21199;-54
2022/03/28 09:28:56;;;;;;;9.90;4.75;;;;;;;14.62;21.46;95061.29;1650145;85;21001;-53
2022/03/28 09:31:30;;;;;;;18.60;6.80;;;;;;;14.76;21.01;95055.10;1651392;84;21088;-54
2022/03/28 09:34:06;;;;;;;15.28;5.72;;;;;;;14.94;21.36;95053.66;1664603;84;21854;-51
2022/03/28 09:36:52;;;;;;;24.00;6.22;;;;;;;15.16;20.56;95050.02;1657876;84;21071;-52
2022/03/28 09:39:29;;;;;;;13.62;5.08;;;;;;;15.45;19.92;95041.90;1655760;84;21698;-55
2022/03/28 09:42:09;;;;;;;8.43;4.97;;;;;;;15.77;19.38;95030.59;1656725;84;21179;-53
2022/03/28 09:44:51;;;;;;;9.70;5.35;;;;;;;16.06;19.36;95042.54;1657399;84;21151;-53
2022/03/28 09:47:24;;;;;;;8.73;3.60;;;;;;;16.35;17.88;95041.25;1623360;85;21732;-54
2022/03/28 09:49:57;;;;;;;6.22;4.30;;;;;;;16.55;17.80;95030.25;1649212;84;21061;-54
2022/03/28 09:52:33;;;;;;;10.40;4.37;;;;;;;16.67;17.06;95024.40;1648248;85;21251;-53
2022/03/28 09:54:59;;;;;;;3.58;3.15;;;;;;;16.88;18.34;95028.04;1639055;84;20973;-53
2022/03/28 09:57:34;;;;;;;6.72;3.05;;;;;;;17.19;17.26;95019.91;1655671;85;21081;-53
2022/03/28 10:00:20;;;;;;;17.25;3.35;;;;;;;17.48;17.22;95019.88;1658455;84;21106;-53
2022/03/28 10:02:46;;;;;;;12.03;2.90;;;;;;;17.68;17.24;95019.25;1655708;84;21054;-54
2022/03/28 10:05:14;;;;;;;11.83;2.98;;;;;;;17.97;16.24;95014.95;1654491;84;21151;-54
2022/03/28 10:07:42;;;;;;;6.10;2.70;;;;;;;18.21;15.95;95018.26;1667822;84;21087;-53
2022/03/28 10:10:11;;;;;;;7.55;2.90;;;;;;;18.46;15.18;95021.75;1649627;85;21030;-53
2022/03/28 10:12:40;;;;;;;6.75;2.30;;;;;;;18.66;15.40;95008.50;1655517;85;21143;-54
2022/03/28 10:15:09;;;;;;;7.70;3.30;;;;;;;18.99;15.35;95016.41;1670988;85;21083;-54
2022/03/28 10:17:36;;;;;;;29.12;11.35;;;;;;;19.39;15.14;95012.78;1660425;85;21128;-55
2022/03/28 10:20:06;;;;;;;18.90;10.85;;;;;;;19.73;14.04;95007.53;1635766;85;22135;-53
2022/03/28 10:22:37;;;;;;;14.45;7.40;;;;;;;20.02;13.92;95001.62;1651830;85;21581;-54
2022/03/28 10:25:09;;;;;;;11.63;3.98;;;;;;;20.39;14.12;95005.05;1642453;85;21088;-55
2022/03/28 10:27:37;;;;;;;6.80;3.23;;;;;;;20.85;14.86;95011.77;1645182;84;22159;-54
2022/03/28 10:30:24;;;;;;;21.50;3.85;;;;;;;21.06;15.07;95009.47;1629178;84;21834;-55
2022/03/28 10:33:22;;;;;;;10.93;3.83;;;;;;;21.12;15.59;95006.80;1651004;84;21104;-54
2022/03/28 10:35:58;;;;;;;14.98;3.98;;;;;;;21.30;15.02;95017.48;1665879;84;21023;-54
2022/03/28 10:38:27;;;;;;;13.50;4.12;;;;;;;21.36;15.18;95004.88;1659518;84;21110;-55
2022/03/28 10:41:09;;;;;;;14.68;3.70;;;;;;;21.37;15.17;95009.20;1663239;85;21614;-54
2022/03/28 10:43:34;;;;;;;7.58;3.35;;;;;;;21.44;14.83;95001.70;1668745;84;21246;-53
2022/03/28 10:46:06;;;;;;;8.05;3.05;;;;;;;21.45;14.65;95003.23;1654545;84;21403;-54
2022/03/28 10:48:50;;;;;;;31.52;4.72;;;;;;;21.54;14.27;95000.92;1660999;84;21071;-56
2022/03/28 10:51:24;;;;;;;13.70;3.70;;;;;;;21.65;14.53;94998.77;1627621;84;21099;-55
2022/03/28 10:54:01;;;;;;;10.28;3.52;;;;;;;21.65;14.73;94998.77;1660052;85;21087;-55
2022/03/28 10:56:38;;;;;;;13.30;3.62;;;;;;;21.75;14.26;94990.19;1614890;86;21247;-57
2022/03/28 10:59:07;;;;;;;18.62;3.72;;;;;;;21.81;13.96;95002.16;1645611;86;21514;-55
2022/03/28 11:01:47;;;;;;;7.75;4.08;;;;;;;21.84;14.03;94973.12;1647260;84;21103;-54
2022/03/28 11:04:21;;;;;;;23.42;4.37;;;;;;;21.78;14.35;94978.73;1645621;85;21101;-53
2022/03/28 11:07:11;;;;;;;15.90;3.65;;;;;;;21.92;14.42;94974.09;1661981;84;21066;-55
2022/03/28 11:09:49;;;;;;;6.75;3.98;;;;;;;22.07;14.40;94978.87;1649381;85;21050;-56
2022/03/28 11:12:37;;;;;;;8.65;3.40;;;;;;;22.22;14.38;94969.51;1645117;85;21089;-53
2022/03/28 11:15:19;;;;;;;9.00;3.77;;;;;;;22.38;13.99;94967.29;1617285;86;21070;-55
2022/03/28 11:18:01;;;;;;;16.77;3.67;;;;;;;22.45;13.80;94948.50;1598670;87;21037;-55
2022/03/28 11:20:53;;;;;;;12.65;4.30;;;;;;;22.33;13.67;94946.26;1645952;84;21120;-57
2022/03/28 11:23:21;;;;;;;8.30;3.98;;;;;;;22.22;14.31;94949.11;1659568;85;21842;-57
2022/03/28 11:25:57;;;;;;;13.88;4.10;;;;;;;22.45;14.05;94952.70;1649043;85;21046;-56
2022/03/28 11:28:27;;;;;;;9.13;4.40;;;;;;;22.67;13.92;94939.93;1625272;85;21090;-53
2022/03/28 11:31:08;;;;;;;14.15;4.50;;;;;;;22.78;13.96;94927.86;1657402;85;21068;-52
2022/03/28 11:33:46;;;;;;;8.33;3.98;;;;;;;22.83;13.61;94925.67;1644272;84;21636;-56
2022/03/28 11:36:13;;;;;;;7.83;3.87;;;;;;;22.73;13.83;94915.42;1638107;86;21134;-54